Terminal Aerodrome Forecast
Issued by NWS Tulsa, OK

Home | Current Version | Previous Version | Text Only | Print | Product List | Glossary Off
Versions: 1 2 3 4 5 6 7 8 9 10 11 12

000
FTUS44 KTSA 191720
TAFTUL
TAF
KTUL 191720Z 1918/2018 19012KT P6SM BKN250
     FM200000 15008KT P6SM BKN250
     FM201500 17013G21KT P6SM BKN250=

USA.gov is the U.S. government's official web portal to all federal, state and local government web resources and services.